Dn Vatan — TCZN6 — position and weather

sailwx.info

Track history (hours):
 
Tides and Currents Weather Stations Pressure Air Temp Water Temp Dewpoint Dewpoint Depression Visibility Wind Speed Wind Dir Waves Ship Positions

Dn Vatan

Last reported at 2015-Sep-01 07:33 UTC. Time now 2015-Sep-02 17:02 UTC.
Position N 36°21' W 002°50'.

Length 196 m; draft 6.6 m.

Type: Cargo ship. MMSI: 270991365.

Date/timePositionNaut miles runAvg speedWind from/ knotsBaromVisibWave heightAir tempDewpointWater temp
2015-Sep-01 07:33N 36°21' W 002°50'1211.7
2015-Sep-01 06:33N 36°23' W 002°36'1411.8
2015-Sep-01 05:24N 36°24' W 002°19'11412.3
2015-Aug-31 20:07N 36°47' E 000°00'812.5
2015-Aug-31 19:30N 36°48' E 000°10'1212.5
2015-Aug-31 18:33N 36°50' E 000°24'1212.3
2015-Aug-31 17:33N 36°53' E 000°39'1211.8
2015-Aug-31 16:33N 36°56' E 000°54'1212.0
2015-Aug-31 15:31N 36°58' E 001°09'1212.5
2015-Aug-31 14:33N 37°00' E 001°24'1312.9
2015-Aug-31 13:34N 37°02' E 001°40'1413.4
2015-Aug-31 12:33N 37°04' E 001°57'1413.5
2015-Aug-31 11:28N 37°07' E 002°14'1312.9
2015-Aug-31 10:30N 37°10' E 002°29'1212.3
2015-Aug-31 09:31N 37°13' E 002°44'3712.4
2015-Aug-31 06:33N 37°17' E 003°30'5112.6
2015-Aug-31 02:33N 37°22' E 004°34'1312.5
2015-Aug-31 01:33N 37°23' E 004°49'9112.5
2015-Aug-30 18:15N 37°32' E 006°43'912.3
2015-Aug-30 17:33N 37°33' E 006°54'6312.6
2015-Aug-30 12:33N 37°39' E 008°13'2612.4
2015-Aug-30 10:25N 37°42' E 008°46'2412.2
2015-Aug-30 08:29N 37°42' E 009°16'1111.9
2015-Aug-30 07:33N 37°41' E 009°30'1211.9
2015-Aug-30 06:33N 37°40' E 009°45'2911.7
2015-Aug-30 04:04N 37°38' E 010°22'2111.9
2015-Aug-30 02:16N 37°32' E 010°48'2111.6
2015-Aug-30 00:25N 37°27' E 011°14'2312.3
2015-Aug-29 22:32N 37°16' E 011°40'2412.0
2015-Aug-29 20:31N 37°05' E 012°07'1211.9
2015-Aug-29 19:30N 37°02' E 012°22'1111.7
2015-Aug-29 18:33N 36°60' E 012°35'1212.2
2015-Aug-29 17:33N 36°57' E 012°50'6212.4
2015-Aug-29 12:32N 36°43' E 014°06'1312.4
2015-Aug-29 11:30N 36°41' E 014°22'1312.2
2015-Aug-29 10:25N 36°38' E 014°38'47211.4
2015-Aug-27 17:06N 37°49' E 024°24'  
2015-Aug-24 19:33N 44°35' E 037°40'9 8.8
2015-Aug-24 18:33N 44°40' E 037°50'4 4.1
2015-Aug-24 17:33N 44°44' E 037°48'0 0.0
2015-Aug-24 16:30N 44°44' E 037°48'0 0.0
2015-Aug-24 15:33N 44°44' E 037°48'0 0.0
2015-Aug-24 14:33N 44°44' E 037°48'0 0.1
2015-Aug-24 13:33N 44°44' E 037°48'0 0.0
2015-Aug-24 12:33N 44°44' E 037°48'0 0.0
2015-Aug-24 11:33N 44°44' E 037°48'0 0.0
2015-Aug-24 10:27N 44°44' E 037°48'0 0.0
2015-Aug-24 09:33N 44°44' E 037°48'0 0.0
2015-Aug-24 08:33N 44°44' E 037°48'0 0.0
2015-Aug-24 07:33N 44°44' E 037°48'0 0.0
2015-Aug-24 06:33N 44°44' E 037°48'0 0.0
2015-Aug-24 05:33N 44°44' E 037°48'0 0.0
2015-Aug-24 04:27N 44°44' E 037°48'0 0.0
2015-Aug-24 03:33N 44°44' E 037°48'0 0.0
2015-Aug-24 02:33N 44°44' E 037°48'0 0.0
2015-Aug-24 01:33N 44°44' E 037°48'0 0.0
2015-Aug-24 00:33N 44°44' E 037°48'0 0.0
2015-Aug-22 16:33N 44°44' E 037°48'0 0.0
2015-Aug-22 15:33N 44°44' E 037°48'0 0.0
2015-Aug-22 14:33N 44°44' E 037°48'0 0.0
2015-Aug-22 13:33N 44°44' E 037°48'0 0.0
2015-Aug-22 12:30N 44°44' E 037°48'0 0.0
2015-Aug-22 11:33N 44°44' E 037°48'0 0.0
2015-Aug-22 10:33N 44°44' E 037°48'0 0.0
2015-Aug-22 09:33N 44°44' E 037°48'0 0.0
2015-Aug-22 08:33N 44°44' E 037°48'0 0.0
2015-Aug-22 07:33N 44°44' E 037°48'  
Track history (hours):
 
Tides and Currents Weather Stations Pressure Air Temp Water Temp Dewpoint Dewpoint Depression Visibility Wind Speed Wind Dir Waves Ship Positions

Dn Vatan

Last reported at 2015-Sep-01 07:33 UTC. Time now 2015-Sep-02 17:02 UTC.
Position N 36°21' W 002°50'.

Length 196 m; draft 6.6 m.

Type: Cargo ship. MMSI: 270991365.

Date/timePositionNaut miles runAvg speedWind from/ knotsBaromVisibWave heightAir tempDewpointWater temp
2015-Sep-01 07:33N 36°21' W 002°50'1211.7
2015-Sep-01 06:33N 36°23' W 002°36'1411.8
2015-Sep-01 05:24N 36°24' W 002°19'11412.3
2015-Aug-31 20:07N 36°47' E 000°00'812.5
2015-Aug-31 19:30N 36°48' E 000°10'1212.5
2015-Aug-31 18:33N 36°50' E 000°24'1212.3
2015-Aug-31 17:33N 36°53' E 000°39'1211.8
2015-Aug-31 16:33N 36°56' E 000°54'1212.0
2015-Aug-31 15:31N 36°58' E 001°09'1212.5
2015-Aug-31 14:33N 37°00' E 001°24'1312.9
2015-Aug-31 13:34N 37°02' E 001°40'1413.4
2015-Aug-31 12:33N 37°04' E 001°57'1413.5
2015-Aug-31 11:28N 37°07' E 002°14'1312.9
2015-Aug-31 10:30N 37°10' E 002°29'1212.3
2015-Aug-31 09:31N 37°13' E 002°44'3712.4
2015-Aug-31 06:33N 37°17' E 003°30'5112.6
2015-Aug-31 02:33N 37°22' E 004°34'1312.5
2015-Aug-31 01:33N 37°23' E 004°49'9112.5
2015-Aug-30 18:15N 37°32' E 006°43'912.3
2015-Aug-30 17:33N 37°33' E 006°54'6312.6
2015-Aug-30 12:33N 37°39' E 008°13'2612.4
2015-Aug-30 10:25N 37°42' E 008°46'2412.2
2015-Aug-30 08:29N 37°42' E 009°16'1111.9
2015-Aug-30 07:33N 37°41' E 009°30'1211.9
2015-Aug-30 06:33N 37°40' E 009°45'2911.7
2015-Aug-30 04:04N 37°38' E 010°22'2111.9
2015-Aug-30 02:16N 37°32' E 010°48'2111.6
2015-Aug-30 00:25N 37°27' E 011°14'2312.3
2015-Aug-29 22:32N 37°16' E 011°40'2412.0
2015-Aug-29 20:31N 37°05' E 012°07'1211.9
2015-Aug-29 19:30N 37°02' E 012°22'1111.7
2015-Aug-29 18:33N 36°60' E 012°35'1212.2
2015-Aug-29 17:33N 36°57' E 012°50'6212.4
2015-Aug-29 12:32N 36°43' E 014°06'1312.4
2015-Aug-29 11:30N 36°41' E 014°22'1312.2
2015-Aug-29 10:25N 36°38' E 014°38'47211.4
2015-Aug-27 17:06N 37°49' E 024°24'  
2015-Aug-24 19:33N 44°35' E 037°40'9 8.8
2015-Aug-24 18:33N 44°40' E 037°50'4 4.1
2015-Aug-24 17:33N 44°44' E 037°48'0 0.0
2015-Aug-24 16:30N 44°44' E 037°48'0 0.0
2015-Aug-24 15:33N 44°44' E 037°48'0 0.0
2015-Aug-24 14:33N 44°44' E 037°48'0 0.1
2015-Aug-24 13:33N 44°44' E 037°48'0 0.0
2015-Aug-24 12:33N 44°44' E 037°48'0 0.0
2015-Aug-24 11:33N 44°44' E 037°48'0 0.0
2015-Aug-24 10:27N 44°44' E 037°48'0 0.0
2015-Aug-24 09:33N 44°44' E 037°48'0 0.0
2015-Aug-24 08:33N 44°44' E 037°48'0 0.0
2015-Aug-24 07:33N 44°44' E 037°48'0 0.0
2015-Aug-24 06:33N 44°44' E 037°48'0 0.0
2015-Aug-24 05:33N 44°44' E 037°48'0 0.0
2015-Aug-24 04:27N 44°44' E 037°48'0 0.0
2015-Aug-24 03:33N 44°44' E 037°48'0 0.0
2015-Aug-24 02:33N 44°44' E 037°48'0 0.0
2015-Aug-24 01:33N 44°44' E 037°48'0 0.0
2015-Aug-24 00:33N 44°44' E 037°48'0 0.0
2015-Aug-22 16:33N 44°44' E 037°48'0 0.0
2015-Aug-22 15:33N 44°44' E 037°48'0 0.0
2015-Aug-22 14:33N 44°44' E 037°48'0 0.0
2015-Aug-22 13:33N 44°44' E 037°48'0 0.0
2015-Aug-22 12:30N 44°44' E 037°48'0 0.0
2015-Aug-22 11:33N 44°44' E 037°48'0 0.0
2015-Aug-22 10:33N 44°44' E 037°48'0 0.0
2015-Aug-22 09:33N 44°44' E 037°48'0 0.0
2015-Aug-22 08:33N 44°44' E 037°48'0 0.0
2015-Aug-22 07:33N 44°44' E 037°48'  

Dump ship's entire track history